sensor_id;sensor_type;location;lat;lon;timestamp;P1;durP1;ratioP1;P2;durP2;ratioP2
9665;SDS011;4871;52.004;5.924;2022-10-14T00:00:00;11.60;;;8.60;;
9665;SDS011;4871;52.004;5.924;2022-10-14T00:01:00;11.60;;;8.60;;
9665;SDS011;4871;52.004;5.924;2022-10-14T00:02:00;11.60;;;8.60;;
9665;SDS011;4871;52.004;5.924;2022-10-14T00:03:00;11.60;;;8.60;;
9665;SDS011;4871;52.004;5.924;2022-10-14T00:04:00;11.60;;;8.60;;
9665;SDS011;4871;52.004;5.924;2022-10-14T00:05:00;11.60;;;8.60;;
9665;SDS011;4871;52.004;5.924;2022-10-14T00:06:02;11.60;;;8.60;;
9665;SDS011;4871;52.004;5.924;2022-10-14T00:07:00;11.60;;;8.60;;
9665;SDS011;4871;52.004;5.924;2022-10-14T00:08:00;11.60;;;8.60;;
9665;SDS011;4871;52.004;5.924;2022-10-14T00:09:00;11.60;;;8.60;;
9665;SDS011;4871;52.004;5.924;2022-10-14T00:10:00;11.60;;;8.60;;
9665;SDS011;4871;52.004;5.924;2022-10-14T00:11:09;11.60;;;8.60;;
9665;SDS011;4871;52.004;5.924;2022-10-14T00:12:00;11.60;;;8.60;;
9665;SDS011;4871;52.004;5.924;2022-10-14T00:13:00;11.60;;;8.60;;
9665;SDS011;4871;52.004;5.924;2022-10-14T00:14:01;11.60;;;8.60;;
9665;SDS011;4871;52.004;5.924;2022-10-14T00:15:00;11.60;;;8.60;;
9665;SDS011;4871;52.004;5.924;2022-10-14T00:16:00;11.60;;;8.60;;
9665;SDS011;4871;52.004;5.924;2022-10-14T00:17:00;11.60;;;8.60;;
9665;SDS011;4871;52.004;5.924;2022-10-14T00:18:00;11.60;;;8.60;;
9665;SDS011;4871;52.004;5.924;2022-10-14T00:19:00;11.60;;;8.60;;
9665;SDS011;4871;52.004;5.924;2022-10-14T00:20:00;11.60;;;8.60;;
9665;SDS011;4871;52.004;5.924;2022-10-14T00:21:00;11.90;;;8.30;;
9665;SDS011;4871;52.004;5.924;2022-10-14T00:22:00;11.90;;;8.30;;
9665;SDS011;4871;52.004;5.924;2022-10-14T00:23:00;11.90;;;8.30;;
9665;SDS011;4871;52.004;5.924;2022-10-14T00:24:00;11.90;;;8.30;;
9665;SDS011;4871;52.004;5.924;2022-10-14T00:25:00;11.90;;;8.30;;
9665;SDS011;4871;52.004;5.924;2022-10-14T00:26:00;11.90;;;8.30;;
9665;SDS011;4871;52.004;5.924;2022-10-14T00:27:00;11.90;;;8.30;;
9665;SDS011;4871;52.004;5.924;2022-10-14T00:28:02;11.90;;;8.30;;
9665;SDS011;4871;52.004;5.924;2022-10-14T00:29:00;11.90;;;8.30;;
9665;SDS011;4871;52.004;5.924;2022-10-14T00:30:00;11.90;;;8.30;;
9665;SDS011;4871;52.004;5.924;2022-10-14T00:31:00;11.90;;;8.30;;
9665;SDS011;4871;52.004;5.924;2022-10-14T00:32:00;11.90;;;8.30;;
9665;SDS011;4871;52.004;5.924;2022-10-14T00:33:00;11.90;;;8.30;;
9665;SDS011;4871;52.004;5.924;2022-10-14T00:34:00;11.90;;;8.30;;
9665;SDS011;4871;52.004;5.924;2022-10-14T00:35:00;11.90;;;8.30;;
9665;SDS011;4871;52.004;5.924;2022-10-14T00:36:00;11.90;;;8.30;;
9665;SDS011;4871;52.004;5.924;2022-10-14T00:37:00;11.90;;;8.30;;
9665;SDS011;4871;52.004;5.924;2022-10-14T00:38:00;11.90;;;8.30;;
9665;SDS011;4871;52.004;5.924;2022-10-14T00:39:00;11.90;;;8.30;;
9665;SDS011;4871;52.004;5.924;2022-10-14T00:40:00;11.90;;;8.30;;
9665;SDS011;4871;52.004;5.924;2022-10-14T00:41:00;11.90;;;8.30;;
9665;SDS011;4871;52.004;5.924;2022-10-14T00:42:00;11.90;;;8.30;;
9665;SDS011;4871;52.004;5.924;2022-10-14T00:43:00;11.90;;;8.30;;
9665;SDS011;4871;52.004;5.924;2022-10-14T00:45:01;11.90;;;8.30;;
9665;SDS011;4871;52.004;5.924;2022-10-14T00:46:00;11.90;;;8.30;;
9665;SDS011;4871;52.004;5.924;2022-10-14T00:47:00;11.90;;;8.30;;
9665;SDS011;4871;52.004;5.924;2022-10-14T00:48:00;11.90;;;8.30;;
9665;SDS011;4871;52.004;5.924;2022-10-14T00:49:11;11.90;;;8.30;;
9665;SDS011;4871;52.004;5.924;2022-10-14T00:50:00;11.90;;;8.30;;
9665;SDS011;4871;52.004;5.924;2022-10-14T00:51:00;13.60;;;9.30;;
9665;SDS011;4871;52.004;5.924;2022-10-14T00:52:04;13.60;;;9.30;;
9665;SDS011;4871;52.004;5.924;2022-10-14T00:53:00;13.60;;;9.30;;
9665;SDS011;4871;52.004;5.924;2022-10-14T00:54:00;13.60;;;9.30;;
9665;SDS011;4871;52.004;5.924;2022-10-14T00:55:01;13.60;;;9.30;;
9665;SDS011;4871;52.004;5.924;2022-10-14T00:56:00;13.60;;;9.30;;
9665;SDS011;4871;52.004;5.924;2022-10-14T00:57:00;13.60;;;9.30;;
9665;SDS011;4871;52.004;5.924;2022-10-14T00:58:00;13.60;;;9.30;;
9665;SDS011;4871;52.004;5.924;2022-10-14T00:59:00;13.60;;;9.30;;
9665;SDS011;4871;52.004;5.924;2022-10-14T01:00:01;13.60;;;9.30;;
9665;SDS011;4871;52.004;5.924;2022-10-14T01:01:00;13.60;;;9.30;;
9665;SDS011;4871;52.004;5.924;2022-10-14T01:02:00;13.60;;;9.30;;
9665;SDS011;4871;52.004;5.924;2022-10-14T01:03:00;13.60;;;9.30;;
9665;SDS011;4871;52.004;5.924;2022-10-14T01:04:00;13.60;;;9.30;;
9665;SDS011;4871;52.004;5.924;2022-10-14T01:05:00;13.60;;;9.30;;
9665;SDS011;4871;52.004;5.924;2022-10-14T01:06:06;13.60;;;9.30;;
9665;SDS011;4871;52.004;5.924;2022-10-14T01:08:09;13.60;;;9.30;;
9665;SDS011;4871;52.004;5.924;2022-10-14T01:11:04;13.60;;;9.30;;
9665;SDS011;4871;52.004;5.924;2022-10-14T01:17:03;13.60;;;9.30;;
9665;SDS011;4871;52.004;5.924;2022-10-14T01:18:03;13.60;;;9.30;;
9665;SDS011;4871;52.004;5.924;2022-10-14T01:19:05;13.60;;;9.30;;
9665;SDS011;4871;52.004;5.924;2022-10-14T01:22:11;13.70;;;9.20;;
9665;SDS011;4871;52.004;5.924;2022-10-14T01:23:06;13.70;;;9.20;;
9665;SDS011;4871;52.004;5.924;2022-10-14T01:25:06;13.70;;;9.20;;
9665;SDS011;4871;52.004;5.924;2022-10-14T01:26:03;13.70;;;9.20;;
9665;SDS011;4871;52.004;5.924;2022-10-14T01:28:11;13.70;;;9.20;;
9665;SDS011;4871;52.004;5.924;2022-10-14T01:29:18;13.70;;;9.20;;
9665;SDS011;4871;52.004;5.924;2022-10-14T01:30:03;13.70;;;9.20;;
9665;SDS011;4871;52.004;5.924;2022-10-14T01:31:00;13.70;;;9.20;;
9665;SDS011;4871;52.004;5.924;2022-10-14T01:32:01;13.70;;;9.20;;
9665;SDS011;4871;52.004;5.924;2022-10-14T01:33:19;13.70;;;9.20;;
9665;SDS011;4871;52.004;5.924;2022-10-14T01:34:01;13.70;;;9.20;;
9665;SDS011;4871;52.004;5.924;2022-10-14T01:35:02;13.70;;;9.20;;
9665;SDS011;4871;52.004;5.924;2022-10-14T01:36:05;13.70;;;9.20;;
9665;SDS011;4871;52.004;5.924;2022-10-14T01:37:01;13.70;;;9.20;;
9665;SDS011;4871;52.004;5.924;2022-10-14T01:38:00;13.70;;;9.20;;
9665;SDS011;4871;52.004;5.924;2022-10-14T01:39:02;13.70;;;9.20;;
9665;SDS011;4871;52.004;5.924;2022-10-14T01:40:02;13.70;;;9.20;;
9665;SDS011;4871;52.004;5.924;2022-10-14T01:41:13;13.70;;;9.20;;
9665;SDS011;4871;52.004;5.924;2022-10-14T01:42:02;13.70;;;9.20;;
9665;SDS011;4871;52.004;5.924;2022-10-14T01:43:00;13.70;;;9.20;;
9665;SDS011;4871;52.004;5.924;2022-10-14T01:44:02;13.70;;;9.20;;
9665;SDS011;4871;52.004;5.924;2022-10-14T01:45:03;13.70;;;9.20;;
9665;SDS011;4871;52.004;5.924;2022-10-14T01:46:01;13.70;;;9.20;;
9665;SDS011;4871;52.004;5.924;2022-10-14T01:47:00;13.70;;;9.20;;
9665;SDS011;4871;52.004;5.924;2022-10-14T01:48:00;13.70;;;9.20;;
9665;SDS011;4871;52.004;5.924;2022-10-14T01:49:01;13.70;;;9.20;;
9665;SDS011;4871;52.004;5.924;2022-10-14T01:50:02;15.40;;;9.00;;
9665;SDS011;4871;52.004;5.924;2022-10-14T01:51:00;15.40;;;9.00;;
9665;SDS011;4871;52.004;5.924;2022-10-14T01:52:03;15.40;;;9.00;;
9665;SDS011;4871;52.004;5.924;2022-10-14T01:53:02;15.40;;;9.00;;
9665;SDS011;4871;52.004;5.924;2022-10-14T01:54:03;15.40;;;9.00;;
9665;SDS011;4871;52.004;5.924;2022-10-14T01:55:00;15.40;;;9.00;;
9665;SDS011;4871;52.004;5.924;2022-10-14T01:56:00;15.40;;;9.00;;
9665;SDS011;4871;52.004;5.924;2022-10-14T01:57:01;15.40;;;9.00;;
9665;SDS011;4871;52.004;5.924;2022-10-14T01:58:00;15.40;;;9.00;;
9665;SDS011;4871;52.004;5.924;2022-10-14T01:59:00;15.40;;;9.00;;
9665;SDS011;4871;52.004;5.924;2022-10-14T02:00:00;15.40;;;9.00;;
9665;SDS011;4871;52.004;5.924;2022-10-14T02:01:01;15.40;;;9.00;;
9665;SDS011;4871;52.004;5.924;2022-10-14T02:02:00;15.40;;;9.00;;
9665;SDS011;4871;52.004;5.924;2022-10-14T02:03:00;15.40;;;9.00;;
9665;SDS011;4871;52.004;5.924;2022-10-14T02:04:00;15.40;;;9.00;;
9665;SDS011;4871;52.004;5.924;2022-10-14T02:05:00;15.40;;;9.00;;
9665;SDS011;4871;52.004;5.924;2022-10-14T02:06:00;15.40;;;9.00;;
9665;SDS011;4871;52.004;5.924;2022-10-14T02:07:04;15.40;;;9.00;;
9665;SDS011;4871;52.004;5.924;2022-10-14T02:08:03;15.40;;;9.00;;
9665;SDS011;4871;52.004;5.924;2022-10-14T02:09:02;15.40;;;9.00;;
9665;SDS011;4871;52.004;5.924;2022-10-14T02:12:07;15.40;;;9.00;;
9665;SDS011;4871;52.004;5.924;2022-10-14T02:13:06;15.40;;;9.00;;
9665;SDS011;4871;52.004;5.924;2022-10-14T02:14:09;15.40;;;9.00;;
9665;SDS011;4871;52.004;5.924;2022-10-14T02:17:01;15.40;;;9.00;;
9665;SDS011;4871;52.004;5.924;2022-10-14T02:19:02;15.40;;;9.00;;
9665;SDS011;4871;52.004;5.924;2022-10-14T02:20:04;13.00;;;9.00;;
9665;SDS011;4871;52.004;5.924;2022-10-14T02:22:01;13.00;;;9.00;;
9665;SDS011;4871;52.004;5.924;2022-10-14T02:23:03;13.00;;;9.00;;
9665;SDS011;4871;52.004;5.924;2022-10-14T02:24:01;13.00;;;9.00;;
9665;SDS011;4871;52.004;5.924;2022-10-14T02:25:02;13.00;;;9.00;;
9665;SDS011;4871;52.004;5.924;2022-10-14T02:26:00;13.00;;;9.00;;
9665;SDS011;4871;52.004;5.924;2022-10-14T02:27:01;13.00;;;9.00;;
9665;SDS011;4871;52.004;5.924;2022-10-14T02:28:00;13.00;;;9.00;;
9665;SDS011;4871;52.004;5.924;2022-10-14T02:29:00;13.00;;;9.00;;
9665;SDS011;4871;52.004;5.924;2022-10-14T02:30:00;13.00;;;9.00;;
9665;SDS011;4871;52.004;5.924;2022-10-14T02:31:01;13.00;;;9.00;;
9665;SDS011;4871;52.004;5.924;2022-10-14T02:32:00;13.00;;;9.00;;
9665;SDS011;4871;52.004;5.924;2022-10-14T02:33:00;13.00;;;9.00;;
9665;SDS011;4871;52.004;5.924;2022-10-14T02:34:01;13.00;;;9.00;;
9665;SDS011;4871;52.004;5.924;2022-10-14T02:35:00;13.00;;;9.00;;
9665;SDS011;4871;52.004;5.924;2022-10-14T02:36:00;13.00;;;9.00;;
9665;SDS011;4871;52.004;5.924;2022-10-14T02:37:00;13.00;;;9.00;;
9665;SDS011;4871;52.004;5.924;2022-10-14T02:38:00;13.00;;;9.00;;
9665;SDS011;4871;52.004;5.924;2022-10-14T02:39:00;13.00;;;9.00;;
9665;SDS011;4871;52.004;5.924;2022-10-14T02:40:10;13.00;;;9.00;;
9665;SDS011;4871;52.004;5.924;2022-10-14T02:41:00;13.00;;;9.00;;
9665;SDS011;4871;52.004;5.924;2022-10-14T02:42:00;13.00;;;9.00;;
9665;SDS011;4871;52.004;5.924;2022-10-14T02:43:00;13.00;;;9.00;;
9665;SDS011;4871;52.004;5.924;2022-10-14T02:44:00;13.00;;;9.00;;
9665;SDS011;4871;52.004;5.924;2022-10-14T02:45:00;13.00;;;9.00;;
9665;SDS011;4871;52.004;5.924;2022-10-14T02:46:00;13.00;;;9.00;;
9665;SDS011;4871;52.004;5.924;2022-10-14T02:47:00;13.00;;;9.00;;
9665;SDS011;4871;52.004;5.924;2022-10-14T02:48:00;13.00;;;9.00;;
9665;SDS011;4871;52.004;5.924;2022-10-14T02:49:00;13.00;;;9.00;;
9665;SDS011;4871;52.004;5.924;2022-10-14T02:50:00;13.70;;;9.40;;
9665;SDS011;4871;52.004;5.924;2022-10-14T02:51:00;13.70;;;9.40;;
9665;SDS011;4871;52.004;5.924;2022-10-14T02:52:00;13.70;;;9.40;;
9665;SDS011;4871;52.004;5.924;2022-10-14T02:53:00;13.70;;;9.40;;
9665;SDS011;4871;52.004;5.924;2022-10-14T02:54:01;13.70;;;9.40;;
9665;SDS011;4871;52.004;5.924;2022-10-14T02:55:00;13.70;;;9.40;;
9665;SDS011;4871;52.004;5.924;2022-10-14T02:56:00;13.70;;;9.40;;
9665;SDS011;4871;52.004;5.924;2022-10-14T02:57:00;13.70;;;9.40;;
9665;SDS011;4871;52.004;5.924;2022-10-14T02:58:00;13.70;;;9.40;;
9665;SDS011;4871;52.004;5.924;2022-10-14T02:59:00;13.70;;;9.40;;
9665;SDS011;4871;52.004;5.924;2022-10-14T03:00:00;13.70;;;9.40;;
9665;SDS011;4871;52.004;5.924;2022-10-14T03:01:00;13.70;;;9.40;;
9665;SDS011;4871;52.004;5.924;2022-10-14T03:02:00;13.70;;;9.40;;
9665;SDS011;4871;52.004;5.924;2022-10-14T03:03:00;13.70;;;9.40;;
9665;SDS011;4871;52.004;5.924;2022-10-14T03:04:00;13.70;;;9.40;;
9665;SDS011;4871;52.004;5.924;2022-10-14T03:05:00;13.70;;;9.40;;
9665;SDS011;4871;52.004;5.924;2022-10-14T03:06:00;13.70;;;9.40;;
9665;SDS011;4871;52.004;5.924;2022-10-14T03:07:00;13.70;;;9.40;;
9665;SDS011;4871;52.004;5.924;2022-10-14T03:08:00;13.70;;;9.40;;
9665;SDS011;4871;52.004;5.924;2022-10-14T03:09:00;13.70;;;9.40;;
9665;SDS011;4871;52.004;5.924;2022-10-14T03:10:00;13.70;;;9.40;;
9665;SDS011;4871;52.004;5.924;2022-10-14T03:11:00;13.70;;;9.40;;
9665;SDS011;4871;52.004;5.924;2022-10-14T03:12:00;13.70;;;9.40;;
9665;SDS011;4871;52.004;5.924;2022-10-14T03:13:00;13.70;;;9.40;;
9665;SDS011;4871;52.004;5.924;2022-10-14T03:14:00;13.70;;;9.40;;
9665;SDS011;4871;52.004;5.924;2022-10-14T03:15:00;13.70;;;9.40;;
9665;SDS011;4871;52.004;5.924;2022-10-14T03:16:00;13.70;;;9.40;;
9665;SDS011;4871;52.004;5.924;2022-10-14T03:17:00;13.70;;;9.40;;
9665;SDS011;4871;52.004;5.924;2022-10-14T03:18:00;13.70;;;9.40;;
9665;SDS011;4871;52.004;5.924;2022-10-14T03:19:00;13.70;;;9.40;;
9665;SDS011;4871;52.004;5.924;2022-10-14T03:20:00;19.60;;;12.90;;
9665;SDS011;4871;52.004;5.924;2022-10-14T03:21:00;19.60;;;12.90;;
9665;SDS011;4871;52.004;5.924;2022-10-14T03:22:00;19.60;;;12.90;;
9665;SDS011;4871;52.004;5.924;2022-10-14T03:23:00;19.60;;;12.90;;
9665;SDS011;4871;52.004;5.924;2022-10-14T03:24:00;19.60;;;12.90;;
9665;SDS011;4871;52.004;5.924;2022-10-14T03:25:00;19.60;;;12.90;;
9665;SDS011;4871;52.004;5.924;2022-10-14T03:26:00;19.60;;;12.90;;
9665;SDS011;4871;52.004;5.924;2022-10-14T03:27:00;19.60;;;12.90;;
9665;SDS011;4871;52.004;5.924;2022-10-14T03:28:00;19.60;;;12.90;;
9665;SDS011;4871;52.004;5.924;2022-10-14T03:29:00;19.60;;;12.90;;
9665;SDS011;4871;52.004;5.924;2022-10-14T03:30:00;19.60;;;12.90;;
9665;SDS011;4871;52.004;5.924;2022-10-14T03:31:00;19.60;;;12.90;;
9665;SDS011;4871;52.004;5.924;2022-10-14T03:32:00;19.60;;;12.90;;
9665;SDS011;4871;52.004;5.924;2022-10-14T03:33:00;19.60;;;12.90;;
9665;SDS011;4871;52.004;5.924;2022-10-14T03:34:00;19.60;;;12.90;;
9665;SDS011;4871;52.004;5.924;2022-10-14T03:35:00;19.60;;;12.90;;
9665;SDS011;4871;52.004;5.924;2022-10-14T03:36:00;19.60;;;12.90;;
9665;SDS011;4871;52.004;5.924;2022-10-14T03:37:00;19.60;;;12.90;;
9665;SDS011;4871;52.004;5.924;2022-10-14T03:38:02;19.60;;;12.90;;
9665;SDS011;4871;52.004;5.924;2022-10-14T03:39:00;19.60;;;12.90;;
9665;SDS011;4871;52.004;5.924;2022-10-14T03:40:00;19.60;;;12.90;;
9665;SDS011;4871;52.004;5.924;2022-10-14T03:41:00;19.60;;;12.90;;
9665;SDS011;4871;52.004;5.924;2022-10-14T03:42:00;19.60;;;12.90;;
9665;SDS011;4871;52.004;5.924;2022-10-14T03:43:00;19.60;;;12.90;;
9665;SDS011;4871;52.004;5.924;2022-10-14T03:44:00;19.60;;;12.90;;
9665;SDS011;4871;52.004;5.924;2022-10-14T03:45:00;19.60;;;12.90;;
9665;SDS011;4871;52.004;5.924;2022-10-14T03:46:00;19.60;;;12.90;;
9665;SDS011;4871;52.004;5.924;2022-10-14T03:47:00;19.60;;;12.90;;
9665;SDS011;4871;52.004;5.924;2022-10-14T03:48:00;19.60;;;12.90;;
9665;SDS011;4871;52.004;5.924;2022-10-14T03:49:00;19.60;;;12.90;;
9665;SDS011;4871;52.004;5.924;2022-10-14T03:50:02;18.20;;;11.90;;
9665;SDS011;4871;52.004;5.924;2022-10-14T03:51:00;18.20;;;11.90;;
9665;SDS011;4871;52.004;5.924;2022-10-14T03:52:00;18.20;;;11.90;;
9665;SDS011;4871;52.004;5.924;2022-10-14T03:53:00;18.20;;;11.90;;
9665;SDS011;4871;52.004;5.924;2022-10-14T03:54:00;18.20;;;11.90;;
9665;SDS011;4871;52.004;5.924;2022-10-14T03:55:00;18.20;;;11.90;;
9665;SDS011;4871;52.004;5.924;2022-10-14T03:56:00;18.20;;;11.90;;
9665;SDS011;4871;52.004;5.924;2022-10-14T03:57:00;18.20;;;11.90;;
9665;SDS011;4871;52.004;5.924;2022-10-14T03:58:00;18.20;;;11.90;;
9665;SDS011;4871;52.004;5.924;2022-10-14T03:59:00;18.20;;;11.90;;
9665;SDS011;4871;52.004;5.924;2022-10-14T04:00:00;18.20;;;11.90;;
9665;SDS011;4871;52.004;5.924;2022-10-14T04:01:00;18.20;;;11.90;;
9665;SDS011;4871;52.004;5.924;2022-10-14T04:02:00;18.20;;;11.90;;
9665;SDS011;4871;52.004;5.924;2022-10-14T04:03:00;18.20;;;11.90;;
9665;SDS011;4871;52.004;5.924;2022-10-14T04:04:00;18.20;;;11.90;;
9665;SDS011;4871;52.004;5.924;2022-10-14T04:05:00;18.20;;;11.90;;
9665;SDS011;4871;52.004;5.924;2022-10-14T04:06:00;18.20;;;11.90;;
9665;SDS011;4871;52.004;5.924;2022-10-14T04:07:00;18.20;;;11.90;;
9665;SDS011;4871;52.004;5.924;2022-10-14T04:08:00;18.20;;;11.90;;
9665;SDS011;4871;52.004;5.924;2022-10-14T04:09:00;18.20;;;11.90;;
9665;SDS011;4871;52.004;5.924;2022-10-14T04:10:00;18.20;;;11.90;;
9665;SDS011;4871;52.004;5.924;2022-10-14T04:11:00;18.20;;;11.90;;
9665;SDS011;4871;52.004;5.924;2022-10-14T04:12:00;18.20;;;11.90;;
9665;SDS011;4871;52.004;5.924;2022-10-14T04:13:00;18.20;;;11.90;;
9665;SDS011;4871;52.004;5.924;2022-10-14T04:14:00;18.20;;;11.90;;
9665;SDS011;4871;52.004;5.924;2022-10-14T04:15:00;18.20;;;11.90;;
9665;SDS011;4871;52.004;5.924;2022-10-14T04:16:02;18.20;;;11.90;;
9665;SDS011;4871;52.004;5.924;2022-10-14T04:17:00;18.20;;;11.90;;
9665;SDS011;4871;52.004;5.924;2022-10-14T04:18:00;18.20;;;11.90;;
9665;SDS011;4871;52.004;5.924;2022-10-14T04:19:00;18.20;;;11.90;;
9665;SDS011;4871;52.004;5.924;2022-10-14T04:20:00;20.10;;;12.90;;
9665;SDS011;4871;52.004;5.924;2022-10-14T04:21:00;20.10;;;12.90;;
9665;SDS011;4871;52.004;5.924;2022-10-14T04:22:00;20.10;;;12.90;;
9665;SDS011;4871;52.004;5.924;2022-10-14T04:23:00;20.10;;;12.90;;
9665;SDS011;4871;52.004;5.924;2022-10-14T04:24:00;20.10;;;12.90;;
9665;SDS011;4871;52.004;5.924;2022-10-14T04:25:00;20.10;;;12.90;;
9665;SDS011;4871;52.004;5.924;2022-10-14T04:26:03;20.10;;;12.90;;
9665;SDS011;4871;52.004;5.924;2022-10-14T04:27:00;20.10;;;12.90;;
9665;SDS011;4871;52.004;5.924;2022-10-14T04:28:00;20.10;;;12.90;;
9665;SDS011;4871;52.004;5.924;2022-10-14T04:29:00;20.10;;;12.90;;
9665;SDS011;4871;52.004;5.924;2022-10-14T04:30:00;20.10;;;12.90;;
9665;SDS011;4871;52.004;5.924;2022-10-14T04:31:00;20.10;;;12.90;;
9665;SDS011;4871;52.004;5.924;2022-10-14T04:32:00;20.10;;;12.90;;
9665;SDS011;4871;52.004;5.924;2022-10-14T04:33:00;20.10;;;12.90;;
9665;SDS011;4871;52.004;5.924;2022-10-14T04:34:00;20.10;;;12.90;;
9665;SDS011;4871;52.004;5.924;2022-10-14T04:35:00;20.10;;;12.90;;
9665;SDS011;4871;52.004;5.924;2022-10-14T04:36:00;20.10;;;12.90;;
9665;SDS011;4871;52.004;5.924;2022-10-14T04:37:00;20.10;;;12.90;;
9665;SDS011;4871;52.004;5.924;2022-10-14T04:38:00;20.10;;;12.90;;
9665;SDS011;4871;52.004;5.924;2022-10-14T04:39:00;20.10;;;12.90;;
9665;SDS011;4871;52.004;5.924;2022-10-14T04:40:00;20.10;;;12.90;;
9665;SDS011;4871;52.004;5.924;2022-10-14T04:41:00;20.10;;;12.90;;
9665;SDS011;4871;52.004;5.924;2022-10-14T04:42:00;20.10;;;12.90;;
9665;SDS011;4871;52.004;5.924;2022-10-14T04:43:00;20.10;;;12.90;;
9665;SDS011;4871;52.004;5.924;2022-10-14T04:44:00;20.10;;;12.90;;
9665;SDS011;4871;52.004;5.924;2022-10-14T04:45:00;20.10;;;12.90;;
9665;SDS011;4871;52.004;5.924;2022-10-14T04:46:00;20.10;;;12.90;;
9665;SDS011;4871;52.004;5.924;2022-10-14T04:47:00;20.10;;;12.90;;
9665;SDS011;4871;52.004;5.924;2022-10-14T04:48:00;20.10;;;12.90;;
9665;SDS011;4871;52.004;5.924;2022-10-14T04:49:00;20.10;;;12.90;;
9665;SDS011;4871;52.004;5.924;2022-10-14T04:50:00;21.40;;;14.10;;
9665;SDS011;4871;52.004;5.924;2022-10-14T04:51:00;21.40;;;14.10;;
9665;SDS011;4871;52.004;5.924;2022-10-14T04:52:00;21.40;;;14.10;;
9665;SDS011;4871;52.004;5.924;2022-10-14T04:53:00;21.40;;;14.10;;
9665;SDS011;4871;52.004;5.924;2022-10-14T04:54:00;21.40;;;14.10;;
9665;SDS011;4871;52.004;5.924;2022-10-14T04:55:00;21.40;;;14.10;;
9665;SDS011;4871;52.004;5.924;2022-10-14T04:56:00;21.40;;;14.10;;
9665;SDS011;4871;52.004;5.924;2022-10-14T04:57:00;21.40;;;14.10;;
9665;SDS011;4871;52.004;5.924;2022-10-14T04:58:00;21.40;;;14.10;;
9665;SDS011;4871;52.004;5.924;2022-10-14T04:59:00;21.40;;;14.10;;
9665;SDS011;4871;52.004;5.924;2022-10-14T05:00:00;21.40;;;14.10;;
9665;SDS011;4871;52.004;5.924;2022-10-14T05:01:00;21.40;;;14.10;;
9665;SDS011;4871;52.004;5.924;2022-10-14T05:02:00;21.40;;;14.10;;
9665;SDS011;4871;52.004;5.924;2022-10-14T05:03:00;21.40;;;14.10;;
9665;SDS011;4871;52.004;5.924;2022-10-14T05:04:00;21.40;;;14.10;;
9665;SDS011;4871;52.004;5.924;2022-10-14T05:05:00;21.40;;;14.10;;
9665;SDS011;4871;52.004;5.924;2022-10-14T05:06:00;21.40;;;14.10;;
9665;SDS011;4871;52.004;5.924;2022-10-14T05:07:00;21.40;;;14.10;;
9665;SDS011;4871;52.004;5.924;2022-10-14T05:08:00;21.40;;;14.10;;
9665;SDS011;4871;52.004;5.924;2022-10-14T05:09:00;21.40;;;14.10;;
9665;SDS011;4871;52.004;5.924;2022-10-14T05:10:00;21.40;;;14.10;;
9665;SDS011;4871;52.004;5.924;2022-10-14T05:11:01;21.40;;;14.10;;
9665;SDS011;4871;52.004;5.924;2022-10-14T05:12:00;21.40;;;14.10;;
9665;SDS011;4871;52.004;5.924;2022-10-14T05:13:00;21.40;;;14.10;;
9665;SDS011;4871;52.004;5.924;2022-10-14T05:14:00;21.40;;;14.10;;
9665;SDS011;4871;52.004;5.924;2022-10-14T05:15:00;21.40;;;14.10;;
9665;SDS011;4871;52.004;5.924;2022-10-14T05:16:00;21.40;;;14.10;;
9665;SDS011;4871;52.004;5.924;2022-10-14T05:17:00;21.40;;;14.10;;
9665;SDS011;4871;52.004;5.924;2022-10-14T05:18:00;21.40;;;14.10;;
9665;SDS011;4871;52.004;5.924;2022-10-14T05:19:00;21.40;;;14.10;;
9665;SDS011;4871;52.004;5.924;2022-10-14T05:20:00;22.60;;;14.70;;
9665;SDS011;4871;52.004;5.924;2022-10-14T05:21:00;22.60;;;14.70;;
9665;SDS011;4871;52.004;5.924;2022-10-14T05:22:00;22.60;;;14.70;;
9665;SDS011;4871;52.004;5.924;2022-10-14T05:23:00;22.60;;;14.70;;
9665;SDS011;4871;52.004;5.924;2022-10-14T05:24:00;22.60;;;14.70;;
9665;SDS011;4871;52.004;5.924;2022-10-14T05:25:00;22.60;;;14.70;;
9665;SDS011;4871;52.004;5.924;2022-10-14T05:26:00;22.60;;;14.70;;
9665;SDS011;4871;52.004;5.924;2022-10-14T05:27:00;22.60;;;14.70;;
9665;SDS011;4871;52.004;5.924;2022-10-14T05:28:00;22.60;;;14.70;;
9665;SDS011;4871;52.004;5.924;2022-10-14T05:29:00;22.60;;;14.70;;
9665;SDS011;4871;52.004;5.924;2022-10-14T05:30:00;22.60;;;14.70;;
9665;SDS011;4871;52.004;5.924;2022-10-14T05:31:00;22.60;;;14.70;;
9665;SDS011;4871;52.004;5.924;2022-10-14T05:32:00;22.60;;;14.70;;
9665;SDS011;4871;52.004;5.924;2022-10-14T05:33:00;22.60;;;14.70;;
9665;SDS011;4871;52.004;5.924;2022-10-14T05:34:00;22.60;;;14.70;;
9665;SDS011;4871;52.004;5.924;2022-10-14T05:35:00;22.60;;;14.70;;
9665;SDS011;4871;52.004;5.924;2022-10-14T05:36:00;22.60;;;14.70;;
9665;SDS011;4871;52.004;5.924;2022-10-14T05:37:00;22.60;;;14.70;;
9665;SDS011;4871;52.004;5.924;2022-10-14T05:38:00;22.60;;;14.70;;
9665;SDS011;4871;52.004;5.924;2022-10-14T05:39:00;22.60;;;14.70;;
9665;SDS011;4871;52.004;5.924;2022-10-14T05:40:00;22.60;;;14.70;;
9665;SDS011;4871;52.004;5.924;2022-10-14T05:41:00;22.60;;;14.70;;
9665;SDS011;4871;52.004;5.924;2022-10-14T05:42:00;22.60;;;14.70;;
9665;SDS011;4871;52.004;5.924;2022-10-14T05:43:00;22.60;;;14.70;;
9665;SDS011;4871;52.004;5.924;2022-10-14T05:44:00;22.60;;;14.70;;
9665;SDS011;4871;52.004;5.924;2022-10-14T05:45:00;22.60;;;14.70;;
9665;SDS011;4871;52.004;5.924;2022-10-14T05:46:00;22.60;;;14.70;;
9665;SDS011;4871;52.004;5.924;2022-10-14T05:47:00;22.60;;;14.70;;
9665;SDS011;4871;52.004;5.924;2022-10-14T05:48:00;22.60;;;14.70;;
9665;SDS011;4871;52.004;5.924;2022-10-14T05:49:11;22.60;;;14.70;;
9665;SDS011;4871;52.004;5.924;2022-10-14T05:50:02;22.10;;;14.70;;
9665;SDS011;4871;52.004;5.924;2022-10-14T05:51:08;22.10;;;14.70;;
9665;SDS011;4871;52.004;5.924;2022-10-14T05:52:00;22.10;;;14.70;;
9665;SDS011;4871;52.004;5.924;2022-10-14T05:53:00;22.10;;;14.70;;
9665;SDS011;4871;52.004;5.924;2022-10-14T05:54:00;22.10;;;14.70;;
9665;SDS011;4871;52.004;5.924;2022-10-14T05:55:00;22.10;;;14.70;;
9665;SDS011;4871;52.004;5.924;2022-10-14T05:56:02;22.10;;;14.70;;
9665;SDS011;4871;52.004;5.924;2022-10-14T05:57:00;22.10;;;14.70;;
9665;SDS011;4871;52.004;5.924;2022-10-14T05:58:00;22.10;;;14.70;;
9665;SDS011;4871;52.004;5.924;2022-10-14T05:59:00;22.10;;;14.70;;
9665;SDS011;4871;52.004;5.924;2022-10-14T06:00:00;22.10;;;14.70;;
9665;SDS011;4871;52.004;5.924;2022-10-14T06:01:01;22.10;;;14.70;;
9665;SDS011;4871;52.004;5.924;2022-10-14T06:02:00;22.10;;;14.70;;
9665;SDS011;4871;52.004;5.924;2022-10-14T06:03:00;22.10;;;14.70;;
9665;SDS011;4871;52.004;5.924;2022-10-14T06:04:00;22.10;;;14.70;;
9665;SDS011;4871;52.004;5.924;2022-10-14T06:05:00;22.10;;;14.70;;
9665;SDS011;4871;52.004;5.924;2022-10-14T06:06:00;22.10;;;14.70;;
9665;SDS011;4871;52.004;5.924;2022-10-14T06:07:00;22.10;;;14.70;;
9665;SDS011;4871;52.004;5.924;2022-10-14T06:08:00;22.10;;;14.70;;
9665;SDS011;4871;52.004;5.924;2022-10-14T06:09:00;22.10;;;14.70;;
9665;SDS011;4871;52.004;5.924;2022-10-14T06:10:00;22.10;;;14.70;;
9665;SDS011;4871;52.004;5.924;2022-10-14T06:11:01;22.10;;;14.70;;
9665;SDS011;4871;52.004;5.924;2022-10-14T06:12:00;22.10;;;14.70;;
9665;SDS011;4871;52.004;5.924;2022-10-14T06:13:00;22.10;;;14.70;;
9665;SDS011;4871;52.004;5.924;2022-10-14T06:14:00;22.10;;;14.70;;
9665;SDS011;4871;52.004;5.924;2022-10-14T06:15:00;22.10;;;14.70;;
9665;SDS011;4871;52.004;5.924;2022-10-14T06:16:01;22.10;;;14.70;;
9665;SDS011;4871;52.004;5.924;2022-10-14T06:17:00;22.10;;;14.70;;
9665;SDS011;4871;52.004;5.924;2022-10-14T06:18:00;22.10;;;14.70;;
9665;SDS011;4871;52.004;5.924;2022-10-14T06:19:00;22.10;;;14.70;;
9665;SDS011;4871;52.004;5.924;2022-10-14T06:20:00;16.10;;;12.30;;
9665;SDS011;4871;52.004;5.924;2022-10-14T06:21:00;16.10;;;12.30;;
9665;SDS011;4871;52.004;5.924;2022-10-14T06:22:00;16.10;;;12.30;;
9665;SDS011;4871;52.004;5.924;2022-10-14T06:23:00;16.10;;;12.30;;